sensor_id;sensor_type;location;lat;lon;timestamp;temperature;humidity
70947;DHT22;58605;48.700;8.760;2023-08-30T00:00:22;14.40;89.20
70947;DHT22;58605;48.700;8.760;2023-08-30T00:02:48;14.40;89.00
70947;DHT22;58605;48.700;8.760;2023-08-30T00:05:14;14.40;89.10
70947;DHT22;58605;48.700;8.760;2023-08-30T00:07:40;14.30;88.90
70947;DHT22;58605;48.700;8.760;2023-08-30T00:10:07;14.10;89.30
70947;DHT22;58605;48.700;8.760;2023-08-30T00:12:37;14.00;89.50
70947;DHT22;58605;48.700;8.760;2023-08-30T00:15:04;13.90;90.00
70947;DHT22;58605;48.700;8.760;2023-08-30T00:17:31;13.90;90.20
70947;DHT22;58605;48.700;8.760;2023-08-30T00:19:57;13.80;90.50
70947;DHT22;58605;48.700;8.760;2023-08-30T00:22:24;13.80;90.60
70947;DHT22;58605;48.700;8.760;2023-08-30T00:24:50;13.60;90.70
70947;DHT22;58605;48.700;8.760;2023-08-30T00:27:16;13.60;90.80
70947;DHT22;58605;48.700;8.760;2023-08-30T00:29:44;13.50;90.70
70947;DHT22;58605;48.700;8.760;2023-08-30T00:32:10;13.50;90.90
70947;DHT22;58605;48.700;8.760;2023-08-30T00:34:37;13.40;91.00
70947;DHT22;58605;48.700;8.760;2023-08-30T00:37:03;13.40;91.10
70947;DHT22;58605;48.700;8.760;2023-08-30T00:39:30;13.40;91.00
70947;DHT22;58605;48.700;8.760;2023-08-30T00:41:56;13.30;91.10
70947;DHT22;58605;48.700;8.760;2023-08-30T00:44:22;13.30;91.10
70947;DHT22;58605;48.700;8.760;2023-08-30T00:46:50;13.30;91.30
70947;DHT22;58605;48.700;8.760;2023-08-30T00:49:16;13.40;91.30
70947;DHT22;58605;48.700;8.760;2023-08-30T00:51:43;13.40;91.30
70947;DHT22;58605;48.700;8.760;2023-08-30T00:54:09;13.40;91.20
70947;DHT22;58605;48.700;8.760;2023-08-30T00:56:35;13.30;91.20
70947;DHT22;58605;48.700;8.760;2023-08-30T00:59:02;13.30;91.20
70947;DHT22;58605;48.700;8.760;2023-08-30T01:01:28;13.30;91.30
70947;DHT22;58605;48.700;8.760;2023-08-30T01:03:55;13.30;91.30
70947;DHT22;58605;48.700;8.760;2023-08-30T01:06:22;13.30;91.40
70947;DHT22;58605;48.700;8.760;2023-08-30T01:08:48;13.30;91.40
70947;DHT22;58605;48.700;8.760;2023-08-30T01:11:22;13.20;91.20
70947;DHT22;58605;48.700;8.760;2023-08-30T01:13:54;13.20;91.30
70947;DHT22;58605;48.700;8.760;2023-08-30T01:16:22;13.20;91.40
70947;DHT22;58605;48.700;8.760;2023-08-30T01:18:51;13.20;91.50
70947;DHT22;58605;48.700;8.760;2023-08-30T01:21:30;13.30;91.40
70947;DHT22;58605;48.700;8.760;2023-08-30T01:23:59;13.30;91.40
70947;DHT22;58605;48.700;8.760;2023-08-30T01:26:37;13.20;91.30
70947;DHT22;58605;48.700;8.760;2023-08-30T01:29:06;13.20;91.30
70947;DHT22;58605;48.700;8.760;2023-08-30T01:31:35;13.20;91.20
70947;DHT22;58605;48.700;8.760;2023-08-30T01:34:02;13.20;91.20
70947;DHT22;58605;48.700;8.760;2023-08-30T01:36:36;13.20;91.30
70947;DHT22;58605;48.700;8.760;2023-08-30T01:39:10;13.10;91.40
70947;DHT22;58605;48.700;8.760;2023-08-30T01:41:38;13.00;91.50
70947;DHT22;58605;48.700;8.760;2023-08-30T01:44:07;12.90;91.50
70947;DHT22;58605;48.700;8.760;2023-08-30T01:46:34;12.90;91.70
70947;DHT22;58605;48.700;8.760;2023-08-30T01:49:02;12.90;91.70
70947;DHT22;58605;48.700;8.760;2023-08-30T01:51:29;12.80;91.60
70947;DHT22;58605;48.700;8.760;2023-08-30T01:53:56;12.90;91.50
70947;DHT22;58605;48.700;8.760;2023-08-30T01:56:23;12.90;91.40
70947;DHT22;58605;48.700;8.760;2023-08-30T01:58:49;13.00;91.50
70947;DHT22;58605;48.700;8.760;2023-08-30T02:01:17;13.00;91.60
70947;DHT22;58605;48.700;8.760;2023-08-30T02:03:44;12.90;91.50
70947;DHT22;58605;48.700;8.760;2023-08-30T02:06:14;12.80;91.30
70947;DHT22;58605;48.700;8.760;2023-08-30T02:08:46;12.90;91.30
70947;DHT22;58605;48.700;8.760;2023-08-30T02:11:19;13.00;91.10
70947;DHT22;58605;48.700;8.760;2023-08-30T02:13:46;12.90;91.00
70947;DHT22;58605;48.700;8.760;2023-08-30T02:16:13;12.90;91.10
70947;DHT22;58605;48.700;8.760;2023-08-30T02:18:41;12.70;90.90
70947;DHT22;58605;48.700;8.760;2023-08-30T02:21:07;12.60;90.90
70947;DHT22;58605;48.700;8.760;2023-08-30T02:23:33;12.60;90.90
70947;DHT22;58605;48.700;8.760;2023-08-30T02:26:00;12.50;91.00
70947;DHT22;58605;48.700;8.760;2023-08-30T02:28:26;12.60;91.20
70947;DHT22;58605;48.700;8.760;2023-08-30T02:30:53;12.50;91.20
70947;DHT22;58605;48.700;8.760;2023-08-30T02:33:20;12.50;91.10
70947;DHT22;58605;48.700;8.760;2023-08-30T02:35:47;12.40;90.90
70947;DHT22;58605;48.700;8.760;2023-08-30T02:38:13;12.30;90.80
70947;DHT22;58605;48.700;8.760;2023-08-30T02:40:39;12.30;90.70
70947;DHT22;58605;48.700;8.760;2023-08-30T02:43:05;12.30;91.00
70947;DHT22;58605;48.700;8.760;2023-08-30T02:45:31;12.20;90.90
70947;DHT22;58605;48.700;8.760;2023-08-30T02:47:58;12.20;91.00
70947;DHT22;58605;48.700;8.760;2023-08-30T02:50:24;12.40;91.40
70947;DHT22;58605;48.700;8.760;2023-08-30T02:52:51;12.50;91.50
70947;DHT22;58605;48.700;8.760;2023-08-30T02:55:18;12.50;91.50
70947;DHT22;58605;48.700;8.760;2023-08-30T02:57:44;12.40;91.50
70947;DHT22;58605;48.700;8.760;2023-08-30T03:00:13;12.50;91.60
70947;DHT22;58605;48.700;8.760;2023-08-30T03:02:39;12.60;91.60
70947;DHT22;58605;48.700;8.760;2023-08-30T03:05:06;12.60;91.50
70947;DHT22;58605;48.700;8.760;2023-08-30T03:07:32;12.60;91.40
70947;DHT22;58605;48.700;8.760;2023-08-30T03:10:00;12.60;91.30
70947;DHT22;58605;48.700;8.760;2023-08-30T03:12:26;12.60;91.30
70947;DHT22;58605;48.700;8.760;2023-08-30T03:14:52;12.50;91.30
70947;DHT22;58605;48.700;8.760;2023-08-30T03:17:18;12.60;91.30
70947;DHT22;58605;48.700;8.760;2023-08-30T03:19:44;12.60;91.40
70947;DHT22;58605;48.700;8.760;2023-08-30T03:22:10;12.50;91.40
70947;DHT22;58605;48.700;8.760;2023-08-30T03:24:36;12.50;91.40
70947;DHT22;58605;48.700;8.760;2023-08-30T03:27:04;12.50;91.40
70947;DHT22;58605;48.700;8.760;2023-08-30T03:29:31;12.50;91.50
70947;DHT22;58605;48.700;8.760;2023-08-30T03:31:57;12.50;91.50
70947;DHT22;58605;48.700;8.760;2023-08-30T03:34:23;12.50;91.40
70947;DHT22;58605;48.700;8.760;2023-08-30T03:36:49;12.50;91.30
70947;DHT22;58605;48.700;8.760;2023-08-30T03:39:20;12.60;91.30
70947;DHT22;58605;48.700;8.760;2023-08-30T03:41:46;12.60;91.30
70947;DHT22;58605;48.700;8.760;2023-08-30T03:44:13;12.70;91.40
70947;DHT22;58605;48.700;8.760;2023-08-30T03:46:40;12.90;91.30
70947;DHT22;58605;48.700;8.760;2023-08-30T03:49:06;13.00;91.10
70947;DHT22;58605;48.700;8.760;2023-08-30T03:51:32;13.00;90.90
70947;DHT22;58605;48.700;8.760;2023-08-30T03:53:58;13.00;91.00
70947;DHT22;58605;48.700;8.760;2023-08-30T03:56:24;13.00;90.70
70947;DHT22;58605;48.700;8.760;2023-08-30T03:58:50;12.90;90.80
70947;DHT22;58605;48.700;8.760;2023-08-30T04:01:18;12.90;90.60
70947;DHT22;58605;48.700;8.760;2023-08-30T04:03:44;12.80;90.60
70947;DHT22;58605;48.700;8.760;2023-08-30T04:06:10;12.90;90.40
70947;DHT22;58605;48.700;8.760;2023-08-30T04:08:36;12.70;90.20
70947;DHT22;58605;48.700;8.760;2023-08-30T04:11:02;12.60;90.30
70947;DHT22;58605;48.700;8.760;2023-08-30T04:13:28;12.60;90.30
70947;DHT22;58605;48.700;8.760;2023-08-30T04:15:54;12.50;90.40
70947;DHT22;58605;48.700;8.760;2023-08-30T04:18:24;12.40;90.60
70947;DHT22;58605;48.700;8.760;2023-08-30T04:20:50;12.40;90.80
70947;DHT22;58605;48.700;8.760;2023-08-30T04:23:16;12.30;91.00
70947;DHT22;58605;48.700;8.760;2023-08-30T04:25:43;12.30;91.00
70947;DHT22;58605;48.700;8.760;2023-08-30T04:28:10;12.30;91.00
70947;DHT22;58605;48.700;8.760;2023-08-30T04:30:36;12.30;90.80
70947;DHT22;58605;48.700;8.760;2023-08-30T04:33:03;12.40;90.70
70947;DHT22;58605;48.700;8.760;2023-08-30T04:35:31;12.50;90.60
70947;DHT22;58605;48.700;8.760;2023-08-30T04:37:58;12.60;90.40
70947;DHT22;58605;48.700;8.760;2023-08-30T04:40:24;12.50;90.40
70947;DHT22;58605;48.700;8.760;2023-08-30T04:42:51;12.40;90.50
70947;DHT22;58605;48.700;8.760;2023-08-30T04:45:17;12.50;90.50
70947;DHT22;58605;48.700;8.760;2023-08-30T04:47:43;12.40;90.50
70947;DHT22;58605;48.700;8.760;2023-08-30T04:50:11;12.30;90.60
70947;DHT22;58605;48.700;8.760;2023-08-30T04:52:38;12.30;90.80
70947;DHT22;58605;48.700;8.760;2023-08-30T04:55:05;12.20;90.80
70947;DHT22;58605;48.700;8.760;2023-08-30T04:57:32;12.20;91.00
70947;DHT22;58605;48.700;8.760;2023-08-30T04:59:58;12.20;91.00
70947;DHT22;58605;48.700;8.760;2023-08-30T05:02:25;12.30;91.20
70947;DHT22;58605;48.700;8.760;2023-08-30T05:04:51;12.30;91.10
70947;DHT22;58605;48.700;8.760;2023-08-30T05:07:18;12.20;91.00
70947;DHT22;58605;48.700;8.760;2023-08-30T05:09:45;12.20;90.90
70947;DHT22;58605;48.700;8.760;2023-08-30T05:12:12;12.20;91.00
70947;DHT22;58605;48.700;8.760;2023-08-30T05:14:38;12.30;91.10
70947;DHT22;58605;48.700;8.760;2023-08-30T05:17:04;12.20;91.00
70947;DHT22;58605;48.700;8.760;2023-08-30T05:19:30;12.20;91.10
70947;DHT22;58605;48.700;8.760;2023-08-30T05:21:56;12.30;91.30
70947;DHT22;58605;48.700;8.760;2023-08-30T05:24:23;12.30;91.20
70947;DHT22;58605;48.700;8.760;2023-08-30T05:26:50;12.30;91.10
70947;DHT22;58605;48.700;8.760;2023-08-30T05:29:17;12.30;91.10
70947;DHT22;58605;48.700;8.760;2023-08-30T05:31:43;12.30;91.10
70947;DHT22;58605;48.700;8.760;2023-08-30T05:34:10;12.40;90.80
70947;DHT22;58605;48.700;8.760;2023-08-30T05:36:36;12.50;90.70
70947;DHT22;58605;48.700;8.760;2023-08-30T05:39:02;12.60;90.70
70947;DHT22;58605;48.700;8.760;2023-08-30T05:41:29;12.60;90.60
70947;DHT22;58605;48.700;8.760;2023-08-30T05:43:57;12.50;90.70
70947;DHT22;58605;48.700;8.760;2023-08-30T05:46:23;12.50;90.90
70947;DHT22;58605;48.700;8.760;2023-08-30T05:48:49;12.60;91.10
70947;DHT22;58605;48.700;8.760;2023-08-30T05:51:15;12.60;91.20
70947;DHT22;58605;48.700;8.760;2023-08-30T05:53:41;12.60;91.30
70947;DHT22;58605;48.700;8.760;2023-08-30T05:56:07;12.60;91.10
70947;DHT22;58605;48.700;8.760;2023-08-30T05:58:33;12.70;91.20
70947;DHT22;58605;48.700;8.760;2023-08-30T06:01:02;12.70;91.00
70947;DHT22;58605;48.700;8.760;2023-08-30T06:03:29;12.60;91.00
70947;DHT22;58605;48.700;8.760;2023-08-30T06:05:55;12.70;90.90
70947;DHT22;58605;48.700;8.760;2023-08-30T06:08:21;12.80;90.80
70947;DHT22;58605;48.700;8.760;2023-08-30T06:10:47;12.90;90.60
70947;DHT22;58605;48.700;8.760;2023-08-30T06:13:13;12.80;90.50
70947;DHT22;58605;48.700;8.760;2023-08-30T06:15:39;12.80;90.80
70947;DHT22;58605;48.700;8.760;2023-08-30T06:18:07;12.80;90.90
70947;DHT22;58605;48.700;8.760;2023-08-30T06:20:33;12.70;90.90
70947;DHT22;58605;48.700;8.760;2023-08-30T06:23:03;12.70;91.00
70947;DHT22;58605;48.700;8.760;2023-08-30T06:25:29;12.80;91.10
70947;DHT22;58605;48.700;8.760;2023-08-30T06:27:56;12.80;91.00
70947;DHT22;58605;48.700;8.760;2023-08-30T06:30:24;12.90;90.80
70947;DHT22;58605;48.700;8.760;2023-08-30T06:32:50;13.00;90.40
70947;DHT22;58605;48.700;8.760;2023-08-30T06:35:18;13.10;90.30
70947;DHT22;58605;48.700;8.760;2023-08-30T06:37:44;13.00;90.30
70947;DHT22;58605;48.700;8.760;2023-08-30T06:40:10;13.10;90.20
70947;DHT22;58605;48.700;8.760;2023-08-30T06:42:36;13.10;90.40
70947;DHT22;58605;48.700;8.760;2023-08-30T06:45:05;13.10;90.50
70947;DHT22;58605;48.700;8.760;2023-08-30T06:47:31;13.00;90.40
70947;DHT22;58605;48.700;8.760;2023-08-30T06:49:57;13.00;90.30
70947;DHT22;58605;48.700;8.760;2023-08-30T06:52:25;13.00;90.50
70947;DHT22;58605;48.700;8.760;2023-08-30T06:54:51;13.00;90.60
70947;DHT22;58605;48.700;8.760;2023-08-30T06:57:17;13.10;90.40
70947;DHT22;58605;48.700;8.760;2023-08-30T06:59:43;13.20;90.30
70947;DHT22;58605;48.700;8.760;2023-08-30T07:02:11;13.10;90.40
70947;DHT22;58605;48.700;8.760;2023-08-30T07:04:38;13.20;90.90
70947;DHT22;58605;48.700;8.760;2023-08-30T07:07:05;13.30;91.00
70947;DHT22;58605;48.700;8.760;2023-08-30T07:09:32;13.30;91.10
70947;DHT22;58605;48.700;8.760;2023-08-30T07:11:59;13.40;91.40
70947;DHT22;58605;48.700;8.760;2023-08-30T07:14:25;13.50;90.60
70947;DHT22;58605;48.700;8.760;2023-08-30T07:16:52;13.50;90.60
70947;DHT22;58605;48.700;8.760;2023-08-30T07:19:18;13.60;90.80
70947;DHT22;58605;48.700;8.760;2023-08-30T07:21:44;13.70;90.30
70947;DHT22;58605;48.700;8.760;2023-08-30T07:24:10;13.80;90.10
70947;DHT22;58605;48.700;8.760;2023-08-30T07:26:38;13.90;90.10
70947;DHT22;58605;48.700;8.760;2023-08-30T07:29:04;14.00;90.10
70947;DHT22;58605;48.700;8.760;2023-08-30T07:31:33;14.00;90.00
70947;DHT22;58605;48.700;8.760;2023-08-30T07:33:59;14.10;89.90
70947;DHT22;58605;48.700;8.760;2023-08-30T07:36:25;14.20;89.40
70947;DHT22;58605;48.700;8.760;2023-08-30T07:38:52;14.30;89.30
70947;DHT22;58605;48.700;8.760;2023-08-30T07:41:18;14.30;89.30
70947;DHT22;58605;48.700;8.760;2023-08-30T07:43:45;14.40;89.80
70947;DHT22;58605;48.700;8.760;2023-08-30T07:46:11;14.60;89.60
70947;DHT22;58605;48.700;8.760;2023-08-30T07:48:37;14.60;88.80
70947;DHT22;58605;48.700;8.760;2023-08-30T07:51:11;14.70;88.10
70947;DHT22;58605;48.700;8.760;2023-08-30T07:53:37;14.80;88.20
70947;DHT22;58605;48.700;8.760;2023-08-30T07:56:17;14.90;88.10
70947;DHT22;58605;48.700;8.760;2023-08-30T07:58:43;15.00;89.00
70947;DHT22;58605;48.700;8.760;2023-08-30T08:01:10;15.00;89.40
70947;DHT22;58605;48.700;8.760;2023-08-30T08:03:36;15.00;88.60
70947;DHT22;58605;48.700;8.760;2023-08-30T08:06:03;15.10;87.90
70947;DHT22;58605;48.700;8.760;2023-08-30T08:08:29;15.10;87.90
70947;DHT22;58605;48.700;8.760;2023-08-30T08:10:55;15.20;87.50
70947;DHT22;58605;48.700;8.760;2023-08-30T08:13:21;15.20;87.70
70947;DHT22;58605;48.700;8.760;2023-08-30T08:15:47;15.30;87.10
70947;DHT22;58605;48.700;8.760;2023-08-30T08:18:15;15.30;87.30
70947;DHT22;58605;48.700;8.760;2023-08-30T08:20:41;15.30;86.80
70947;DHT22;58605;48.700;8.760;2023-08-30T08:23:08;15.40;86.90
70947;DHT22;58605;48.700;8.760;2023-08-30T08:25:34;15.40;86.90
70947;DHT22;58605;48.700;8.760;2023-08-30T08:28:00;15.30;86.70
70947;DHT22;58605;48.700;8.760;2023-08-30T08:30:27;15.40;86.70
70947;DHT22;58605;48.700;8.760;2023-08-30T08:32:53;15.50;86.20
70947;DHT22;58605;48.700;8.760;2023-08-30T08:35:23;15.40;85.90
70947;DHT22;58605;48.700;8.760;2023-08-30T08:37:49;15.50;86.20
70947;DHT22;58605;48.700;8.760;2023-08-30T08:40:15;15.50;86.20
70947;DHT22;58605;48.700;8.760;2023-08-30T08:42:42;15.70;86.30
70947;DHT22;58605;48.700;8.760;2023-08-30T08:45:10;15.80;85.60
70947;DHT22;58605;48.700;8.760;2023-08-30T08:47:37;15.80;85.20
70947;DHT22;58605;48.700;8.760;2023-08-30T08:50:04;15.80;84.80
70947;DHT22;58605;48.700;8.760;2023-08-30T08:52:32;15.90;84.10
70947;DHT22;58605;48.700;8.760;2023-08-30T08:54:58;15.90;83.40
70947;DHT22;58605;48.700;8.760;2023-08-30T08:57:29;15.90;83.20
70947;DHT22;58605;48.700;8.760;2023-08-30T08:59:57;15.80;82.30
70947;DHT22;58605;48.700;8.760;2023-08-30T09:02:23;15.70;82.90
70947;DHT22;58605;48.700;8.760;2023-08-30T09:04:50;15.80;82.60
70947;DHT22;58605;48.700;8.760;2023-08-30T09:07:18;15.80;82.10
70947;DHT22;58605;48.700;8.760;2023-08-30T09:09:47;15.90;82.00
70947;DHT22;58605;48.700;8.760;2023-08-30T09:12:13;15.90;83.40
70947;DHT22;58605;48.700;8.760;2023-08-30T09:14:40;15.90;81.80
70947;DHT22;58605;48.700;8.760;2023-08-30T09:17:06;15.90;81.30
70947;DHT22;58605;48.700;8.760;2023-08-30T09:19:32;15.80;80.80
70947;DHT22;58605;48.700;8.760;2023-08-30T09:21:59;15.60;81.40
70947;DHT22;58605;48.700;8.760;2023-08-30T09:24:25;15.60;81.90
70947;DHT22;58605;48.700;8.760;2023-08-30T09:26:54;15.60;82.10
70947;DHT22;58605;48.700;8.760;2023-08-30T09:29:22;15.40;81.90
70947;DHT22;58605;48.700;8.760;2023-08-30T09:31:52;15.30;82.10
70947;DHT22;58605;48.700;8.760;2023-08-30T09:34:22;15.40;82.40
70947;DHT22;58605;48.700;8.760;2023-08-30T09:36:49;15.30;82.40
70947;DHT22;58605;48.700;8.760;2023-08-30T09:39:16;15.30;82.70
70947;DHT22;58605;48.700;8.760;2023-08-30T09:41:42;15.30;82.60
70947;DHT22;58605;48.700;8.760;2023-08-30T09:44:11;15.30;82.80
70947;DHT22;58605;48.700;8.760;2023-08-30T09:46:45;15.30;82.80
70947;DHT22;58605;48.700;8.760;2023-08-30T09:49:12;15.30;82.90
70947;DHT22;58605;48.700;8.760;2023-08-30T09:51:40;15.30;82.60
70947;DHT22;58605;48.700;8.760;2023-08-30T09:54:15;15.30;82.70
70947;DHT22;58605;48.700;8.760;2023-08-30T09:56:44;15.30;82.70
70947;DHT22;58605;48.700;8.760;2023-08-30T09:59:14;15.40;82.40
70947;DHT22;58605;48.700;8.760;2023-08-30T10:01:41;15.40;82.30
70947;DHT22;58605;48.700;8.760;2023-08-30T10:04:08;15.40;82.40
70947;DHT22;58605;48.700;8.760;2023-08-30T10:06:38;15.40;82.30
70947;DHT22;58605;48.700;8.760;2023-08-30T10:09:05;15.40;82.20
70947;DHT22;58605;48.700;8.760;2023-08-30T10:11:33;15.40;82.40
70947;DHT22;58605;48.700;8.760;2023-08-30T10:14:00;15.50;82.10
70947;DHT22;58605;48.700;8.760;2023-08-30T10:16:32;15.40;82.30
70947;DHT22;58605;48.700;8.760;2023-08-30T10:19:06;15.40;82.50
70947;DHT22;58605;48.700;8.760;2023-08-30T10:21:35;15.40;82.40
70947;DHT22;58605;48.700;8.760;2023-08-30T10:24:03;15.50;82.10
70947;DHT22;58605;48.700;8.760;2023-08-30T10:26:30;15.50;82.10
70947;DHT22;58605;48.700;8.760;2023-08-30T10:28:58;15.50;81.80
70947;DHT22;58605;48.700;8.760;2023-08-30T10:31:28;15.50;81.80
70947;DHT22;58605;48.700;8.760;2023-08-30T10:33:54;15.40;82.20
70947;DHT22;58605;48.700;8.760;2023-08-30T10:36:21;15.50;82.50
70947;DHT22;58605;48.700;8.760;2023-08-30T10:38:49;15.70;82.20
70947;DHT22;58605;48.700;8.760;2023-08-30T10:41:20;15.60;81.30
70947;DHT22;58605;48.700;8.760;2023-08-30T10:43:50;15.60;78.20
70947;DHT22;58605;48.700;8.760;2023-08-30T10:46:17;15.40;82.40
70947;DHT22;58605;48.700;8.760;2023-08-30T10:48:44;15.40;83.10
70947;DHT22;58605;48.700;8.760;2023-08-30T10:51:20;15.50;83.60
70947;DHT22;58605;48.700;8.760;2023-08-30T10:53:56;15.50;82.30
70947;DHT22;58605;48.700;8.760;2023-08-30T10:56:28;15.60;85.20
70947;DHT22;58605;48.700;8.760;2023-08-30T10:58:54;15.90;86.20
70947;DHT22;58605;48.700;8.760;2023-08-30T11:01:21;16.00;86.60
70947;DHT22;58605;48.700;8.760;2023-08-30T11:03:49;16.10;85.80
70947;DHT22;58605;48.700;8.760;2023-08-30T11:06:16;16.10;85.60
70947;DHT22;58605;48.700;8.760;2023-08-30T11:08:43;16.20;86.90
70947;DHT22;58605;48.700;8.760;2023-08-30T11:11:10;16.40;87.10
70947;DHT22;58605;48.700;8.760;2023-08-30T11:13:37;16.50;87.70
70947;DHT22;58605;48.700;8.760;2023-08-30T11:16:04;16.50;87.20
70947;DHT22;58605;48.700;8.760;2023-08-30T11:18:30;16.60;87.70
70947;DHT22;58605;48.700;8.760;2023-08-30T11:21:02;16.60;86.60
70947;DHT22;58605;48.700;8.760;2023-08-30T11:23:29;16.50;85.50
70947;DHT22;58605;48.700;8.760;2023-08-30T11:25:55;16.60;86.50
70947;DHT22;58605;48.700;8.760;2023-08-30T11:28:22;16.50;85.30
70947;DHT22;58605;48.700;8.760;2023-08-30T11:30:48;16.60;85.90
70947;DHT22;58605;48.700;8.760;2023-08-30T11:33:17;16.50;84.60
70947;DHT22;58605;48.700;8.760;2023-08-30T11:35:45;16.40;83.30
70947;DHT22;58605;48.700;8.760;2023-08-30T11:38:13;16.40;83.40
70947;DHT22;58605;48.700;8.760;2023-08-30T11:40:40;16.40;83.90
70947;DHT22;58605;48.700;8.760;2023-08-30T11:43:06;16.30;83.00
70947;DHT22;58605;48.700;8.760;2023-08-30T11:45:32;16.20;82.30
70947;DHT22;58605;48.700;8.760;2023-08-30T11:48:02;16.10;82.00
70947;DHT22;58605;48.700;8.760;2023-08-30T11:50:28;16.00;82.20
70947;DHT22;58605;48.700;8.760;2023-08-30T11:52:55;16.00;82.40
70947;DHT22;58605;48.700;8.760;2023-08-30T11:55:24;16.00;82.40
70947;DHT22;58605;48.700;8.760;2023-08-30T11:57:50;16.00;82.50
70947;DHT22;58605;48.700;8.760;2023-08-30T12:00:19;16.00;82.40
70947;DHT22;58605;48.700;8.760;2023-08-30T12:02:46;15.90;82.20
70947;DHT22;58605;48.700;8.760;2023-08-30T12:05:12;15.90;82.30
70947;DHT22;58605;48.700;8.760;2023-08-30T12:07:39;15.90;82.30
70947;DHT22;58605;48.700;8.760;2023-08-30T12:10:06;15.90;82.40
70947;DHT22;58605;48.700;8.760;2023-08-30T12:12:35;15.90;82.30
70947;DHT22;58605;48.700;8.760;2023-08-30T12:15:08;15.80;82.30
70947;DHT22;58605;48.700;8.760;2023-08-30T12:17:41;15.80;82.20
70947;DHT22;58605;48.700;8.760;2023-08-30T12:20:15;15.90;82.50
70947;DHT22;58605;48.700;8.760;2023-08-30T12:22:42;16.30;84.40
70947;DHT22;58605;48.700;8.760;2023-08-30T12:25:16;16.40;83.10
70947;DHT22;58605;48.700;8.760;2023-08-30T12:27:45;16.30;81.20
70947;DHT22;58605;48.700;8.760;2023-08-30T12:30:12;16.40;81.50
70947;DHT22;58605;48.700;8.760;2023-08-30T12:32:39;16.20;80.80
70947;DHT22;58605;48.700;8.760;2023-08-30T12:35:05;16.00;81.10
70947;DHT22;58605;48.700;8.760;2023-08-30T12:37:31;15.90;81.80
70947;DHT22;58605;48.700;8.760;2023-08-30T12:39:57;15.90;82.50
70947;DHT22;58605;48.700;8.760;2023-08-30T12:42:24;15.90;82.60
70947;DHT22;58605;48.700;8.760;2023-08-30T12:44:52;15.80;83.10
70947;DHT22;58605;48.700;8.760;2023-08-30T12:47:18;15.80;83.00
70947;DHT22;58605;48.700;8.760;2023-08-30T12:49:44;15.80;83.30
70947;DHT22;58605;48.700;8.760;2023-08-30T12:52:10;15.80;83.50
70947;DHT22;58605;48.700;8.760;2023-08-30T12:54:36;15.80;83.70
70947;DHT22;58605;48.700;8.760;2023-08-30T12:57:02;15.80;83.60
70947;DHT22;58605;48.700;8.760;2023-08-30T12:59:28;15.80;83.70
70947;DHT22;58605;48.700;8.760;2023-08-30T13:01:56;15.80;83.60
70947;DHT22;58605;48.700;8.760;2023-08-30T13:04:22;15.80;83.60
70947;DHT22;58605;48.700;8.760;2023-08-30T13:06:48;15.80;83.80
70947;DHT22;58605;48.700;8.760;2023-08-30T13:09:14;15.80;83.90
70947;DHT22;58605;48.700;8.760;2023-08-30T13:11:40;15.80;84.20
70947;DHT22;58605;48.700;8.760;2023-08-30T13:14:07;15.80;84.10
70947;DHT22;58605;48.700;8.760;2023-08-30T13:16:33;15.80;84.00
70947;DHT22;58605;48.700;8.760;2023-08-30T13:19:00;15.90;84.00
70947;DHT22;58605;48.700;8.760;2023-08-30T13:21:26;15.90;84.20
70947;DHT22;58605;48.700;8.760;2023-08-30T13:23:52;15.90;84.20
70947;DHT22;58605;48.700;8.760;2023-08-30T13:26:18;15.90;83.90
70947;DHT22;58605;48.700;8.760;2023-08-30T13:28:44;15.90;83.90
70947;DHT22;58605;48.700;8.760;2023-08-30T13:31:10;16.00;83.90
70947;DHT22;58605;48.700;8.760;2023-08-30T13:33:36;16.00;83.60
70947;DHT22;58605;48.700;8.760;2023-08-30T13:36:04;15.90;83.60
70947;DHT22;58605;48.700;8.760;2023-08-30T13:38:30;15.90;83.80
70947;DHT22;58605;48.700;8.760;2023-08-30T13:41:00;16.00;83.70
70947;DHT22;58605;48.700;8.760;2023-08-30T13:43:26;16.00;83.60
70947;DHT22;58605;48.700;8.760;2023-08-30T13:45:57;16.00;83.60
70947;DHT22;58605;48.700;8.760;2023-08-30T13:48:23;16.00;83.60
70947;DHT22;58605;48.700;8.760;2023-08-30T13:50:50;16.00;83.50
70947;DHT22;58605;48.700;8.760;2023-08-30T13:53:17;16.00;83.40
70947;DHT22;58605;48.700;8.760;2023-08-30T13:55:45;15.90;83.70
70947;DHT22;58605;48.700;8.760;2023-08-30T13:58:11;15.90;84.10
70947;DHT22;58605;48.700;8.760;2023-08-30T14:00:37;15.90;84.10
70947;DHT22;58605;48.700;8.760;2023-08-30T14:03:04;15.90;84.10
70947;DHT22;58605;48.700;8.760;2023-08-30T14:05:30;15.90;83.90
70947;DHT22;58605;48.700;8.760;2023-08-30T14:07:56;16.00;84.00
70947;DHT22;58605;48.700;8.760;2023-08-30T14:10:24;16.00;83.90
70947;DHT22;58605;48.700;8.760;2023-08-30T14:12:50;16.00;83.80
70947;DHT22;58605;48.700;8.760;2023-08-30T14:15:16;16.00;83.70
70947;DHT22;58605;48.700;8.760;2023-08-30T14:17:43;15.90;83.70
70947;DHT22;58605;48.700;8.760;2023-08-30T14:20:10;15.90;83.60
70947;DHT22;58605;48.700;8.760;2023-08-30T14:22:36;15.90;83.70
70947;DHT22;58605;48.700;8.760;2023-08-30T14:25:03;15.90;83.80
70947;DHT22;58605;48.700;8.760;2023-08-30T14:27:31;15.90;83.90
70947;DHT22;58605;48.700;8.760;2023-08-30T14:29:57;15.90;84.00
70947;DHT22;58605;48.700;8.760;2023-08-30T14:32:26;15.90;84.10
70947;DHT22;58605;48.700;8.760;2023-08-30T14:34:52;15.90;83.90
70947;DHT22;58605;48.700;8.760;2023-08-30T14:37:18;16.00;83.90
70947;DHT22;58605;48.700;8.760;2023-08-30T14:39:44;16.00;83.90
70947;DHT22;58605;48.700;8.760;2023-08-30T14:42:11;16.00;83.90
70947;DHT22;58605;48.700;8.760;2023-08-30T14:44:38;16.00;83.80
70947;DHT22;58605;48.700;8.760;2023-08-30T14:47:04;16.00;83.90
70947;DHT22;58605;48.700;8.760;2023-08-30T14:49:31;15.90;84.00
70947;DHT22;58605;48.700;8.760;2023-08-30T14:51:58;16.00;84.00
70947;DHT22;58605;48.700;8.760;2023-08-30T14:54:24;15.90;83.90
70947;DHT22;58605;48.700;8.760;2023-08-30T14:56:50;16.00;84.00
70947;DHT22;58605;48.700;8.760;2023-08-30T14:59:16;16.00;84.00
70947;DHT22;58605;48.700;8.760;2023-08-30T15:01:43;16.00;83.90
70947;DHT22;58605;48.700;8.760;2023-08-30T15:04:10;15.90;83.90
70947;DHT22;58605;48.700;8.760;2023-08-30T15:06:36;16.10;84.30
70947;DHT22;58605;48.700;8.760;2023-08-30T15:09:05;16.10;83.70
70947;DHT22;58605;48.700;8.760;2023-08-30T15:11:31;16.10;83.70
70947;DHT22;58605;48.700;8.760;2023-08-30T15:13:57;16.00;83.70
70947;DHT22;58605;48.700;8.760;2023-08-30T15:16:23;16.00;83.80
70947;DHT22;58605;48.700;8.760;2023-08-30T15:18:51;16.00;84.10
70947;DHT22;58605;48.700;8.760;2023-08-30T15:21:17;16.00;84.10
70947;DHT22;58605;48.700;8.760;2023-08-30T15:23:43;16.20;83.90
70947;DHT22;58605;48.700;8.760;2023-08-30T15:26:09;16.20;83.40
70947;DHT22;58605;48.700;8.760;2023-08-30T15:28:41;16.20;83.20